createdAt,value
2022-12-03T00:00:13.427Z,15.63
2022-12-03T00:00:25.617Z,16.10
2022-12-03T00:00:37.728Z,17.13
2022-12-03T00:00:49.673Z,15.93
2022-12-03T00:01:01.782Z,15.15
2022-12-03T00:01:14.237Z,14.30
2022-12-03T00:01:26.562Z,15.15
2022-12-03T00:01:38.506Z,16.27
2022-12-03T00:01:50.646Z,15.48
2022-12-03T00:02:02.603Z,14.95
2022-12-03T00:02:15.087Z,15.38
2022-12-03T00:02:27.223Z,15.40
2022-12-03T00:02:39.743Z,14.95
2022-12-03T00:02:51.987Z,14.48
2022-12-03T00:03:04.571Z,14.25
2022-12-03T00:03:17.373Z,15.60
2022-12-03T00:03:30.495Z,16.13
2022-12-03T00:03:43.377Z,15.20
2022-12-03T00:03:55.943Z,14.07
2022-12-03T00:04:08.211Z,14.43
2022-12-03T00:04:20.175Z,15.07
2022-12-03T00:04:32.119Z,15.90
2022-12-03T00:04:44.045Z,15.65
2022-12-03T00:04:56.135Z,14.57
2022-12-03T00:05:08.578Z,14.73
2022-12-03T00:05:20.913Z,15.18
2022-12-03T00:05:32.881Z,14.65
2022-12-03T00:05:48.832Z,13.48
2022-12-03T00:06:01.513Z,13.77
2022-12-03T00:06:13.408Z,15.05
2022-12-03T00:06:28.981Z,16.98
2022-12-03T00:06:43.483Z,16.92
2022-12-03T00:06:55.419Z,15.82
2022-12-03T00:07:07.458Z,16.13
2022-12-03T00:07:19.373Z,15.75
2022-12-03T00:07:31.323Z,13.93
2022-12-03T00:07:43.374Z,13.70
2022-12-03T00:07:55.560Z,15.40
2022-12-03T00:08:07.609Z,15.70
2022-12-03T00:08:19.857Z,15.07
2022-12-03T00:08:31.746Z,14.23
2022-12-03T00:08:43.732Z,14.52
2022-12-03T00:08:55.784Z,14.98
2022-12-03T00:09:07.935Z,15.07
2022-12-03T00:09:19.830Z,14.48
2022-12-03T00:09:31.749Z,13.40
2022-12-03T00:09:43.711Z,13.95
2022-12-03T00:09:55.597Z,13.90
2022-12-03T00:10:08.514Z,13.98
2022-12-03T00:10:20.451Z,13.70
2022-12-03T00:10:32.519Z,14.68
2022-12-03T00:10:44.485Z,14.82
2022-12-03T00:10:56.916Z,13.50
2022-12-03T00:11:08.860Z,14.18
2022-12-03T00:11:21.129Z,14.45
2022-12-03T00:11:33.367Z,14.77
2022-12-03T00:11:45.857Z,15.13
2022-12-03T00:11:57.781Z,15.52
2022-12-03T00:12:09.885Z,15.13
2022-12-03T00:12:21.869Z,15.00
2022-12-03T00:12:34.234Z,15.02
2022-12-03T00:12:46.470Z,16.48
2022-12-03T00:12:58.906Z,16.42
2022-12-03T00:13:10.777Z,16.38
2022-12-03T00:13:22.778Z,15.98
2022-12-03T00:13:34.784Z,15.82
2022-12-03T00:13:46.885Z,15.40
2022-12-03T00:13:58.841Z,15.27
2022-12-03T00:14:10.845Z,15.65
2022-12-03T00:14:22.746Z,15.10
2022-12-03T00:14:36.135Z,14.07
2022-12-03T00:14:50.218Z,15.30
2022-12-03T00:15:02.335Z,17.05
2022-12-03T00:15:14.683Z,15.93
2022-12-03T00:15:26.690Z,14.38
2022-12-03T00:15:38.923Z,13.52
2022-12-03T00:15:51.278Z,14.53
2022-12-03T00:16:03.783Z,14.70
2022-12-03T00:16:15.768Z,14.77
2022-12-03T00:16:28.324Z,15.45
2022-12-03T00:16:40.444Z,15.02
2022-12-03T00:16:52.394Z,14.20
2022-12-03T00:17:04.301Z,13.77
2022-12-03T00:17:16.602Z,14.73
2022-12-03T00:17:28.795Z,15.90
2022-12-03T00:17:40.727Z,15.98
2022-12-03T00:17:52.750Z,16.25
2022-12-03T00:18:04.983Z,16.08
2022-12-03T00:18:16.903Z,16.33
2022-12-03T00:18:29.397Z,15.18
2022-12-03T00:18:41.289Z,15.48
2022-12-03T00:18:53.353Z,15.40
2022-12-03T00:19:07.587Z,14.55
2022-12-03T00:19:19.527Z,14.65
2022-12-03T00:19:31.467Z,14.65
2022-12-03T00:19:43.539Z,13.63
2022-12-03T00:19:55.495Z,14.02
2022-12-03T00:20:08.748Z,14.38
2022-12-03T00:20:23.414Z,14.80
2022-12-03T00:20:35.344Z,15.75
2022-12-03T00:20:47.341Z,16.65
2022-12-03T00:20:59.291Z,15.98
2022-12-03T00:21:11.285Z,15.07
2022-12-03T00:21:24.773Z,15.75
2022-12-03T00:21:37.099Z,15.60
2022-12-03T00:21:49.092Z,14.48
2022-12-03T00:22:01.060Z,13.70
2022-12-03T00:22:13.029Z,14.30
2022-12-03T00:22:24.940Z,15.50
2022-12-03T00:22:36.882Z,16.58
2022-12-03T00:22:49.216Z,16.55
2022-12-03T00:23:01.225Z,17.00
2022-12-03T00:23:13.190Z,16.88
2022-12-03T00:23:25.285Z,14.77
2022-12-03T00:23:41.815Z,14.80
2022-12-03T00:23:54.443Z,15.30
2022-12-03T00:24:06.969Z,14.88
2022-12-03T00:24:18.866Z,14.93
2022-12-03T00:24:31.358Z,15.95
2022-12-03T00:24:43.271Z,16.33
2022-12-03T00:24:55.770Z,15.45
2022-12-03T00:25:08.477Z,14.68
2022-12-03T00:25:20.413Z,14.98
2022-12-03T00:25:32.409Z,14.45
2022-12-03T00:25:44.360Z,14.57
2022-12-03T00:25:56.602Z,14.52
2022-12-03T00:26:08.512Z,14.75
2022-12-03T00:26:20.819Z,14.52
2022-12-03T00:26:32.784Z,14.95
2022-12-03T00:26:44.811Z,14.93
2022-12-03T00:26:56.746Z,13.88
2022-12-03T00:27:08.672Z,13.65
2022-12-03T00:27:20.626Z,14.13
2022-12-03T00:27:32.719Z,15.18
2022-12-03T00:27:44.926Z,14.82
2022-12-03T00:27:56.879Z,15.30
2022-12-03T00:28:08.835Z,14.95
2022-12-03T00:28:20.784Z,15.00
2022-12-03T00:28:32.786Z,14.85
2022-12-03T00:28:44.685Z,15.05
2022-12-03T00:28:57.625Z,15.00
2022-12-03T00:29:09.534Z,15.35
2022-12-03T00:29:21.467Z,14.20
2022-12-03T00:29:33.358Z,13.85
2022-12-03T00:29:45.714Z,13.60
2022-12-03T00:29:57.678Z,13.27
2022-12-03T00:30:11.028Z,13.25
2022-12-03T00:30:22.945Z,13.73
2022-12-03T00:30:35.330Z,14.88
2022-12-03T00:30:47.274Z,15.70
2022-12-03T00:30:59.637Z,14.70
2022-12-03T00:31:11.676Z,14.40
2022-12-03T00:31:24.989Z,14.98
2022-12-03T00:31:37.097Z,16.88
2022-12-03T00:31:49.131Z,17.15
2022-12-03T00:32:01.083Z,15.88
2022-12-03T00:32:14.184Z,15.60
2022-12-03T00:32:26.104Z,14.75
2022-12-03T00:32:38.093Z,14.75
2022-12-03T00:32:50.088Z,14.50
2022-12-03T00:33:02.486Z,14.45
2022-12-03T00:33:14.447Z,15.27
2022-12-03T00:33:26.498Z,15.27
2022-12-03T00:33:38.448Z,14.13
2022-12-03T00:33:52.343Z,14.60
2022-12-03T00:34:04.273Z,16.63
2022-12-03T00:34:16.392Z,16.40
2022-12-03T00:34:28.331Z,17.40
2022-12-03T00:34:40.284Z,17.75
2022-12-03T00:34:52.482Z,17.08
2022-12-03T00:35:04.998Z,16.20
2022-12-03T00:35:16.980Z,15.30
2022-12-03T00:35:28.900Z,15.20
2022-12-03T00:35:41.012Z,15.98
2022-12-03T00:35:52.978Z,17.10
2022-12-03T00:36:05.356Z,17.27
2022-12-03T00:36:17.422Z,16.17
2022-12-03T00:36:29.404Z,14.75
2022-12-03T00:36:41.407Z,14.95
2022-12-03T00:36:53.312Z,15.52
2022-12-03T00:37:05.415Z,15.18
2022-12-03T00:37:17.363Z,14.77
2022-12-03T00:37:29.506Z,15.80
2022-12-03T00:37:41.411Z,16.65
2022-12-03T00:37:53.865Z,17.50
2022-12-03T00:38:05.883Z,15.68
2022-12-03T00:38:18.400Z,14.35
2022-12-03T00:38:30.322Z,14.88
2022-12-03T00:38:42.268Z,15.10
2022-12-03T00:38:54.215Z,14.38
2022-12-03T00:39:06.155Z,14.55
2022-12-03T00:39:18.055Z,16.45
2022-12-03T00:39:30.527Z,16.35
2022-12-03T00:39:42.402Z,15.70
2022-12-03T00:39:54.617Z,15.60
2022-12-03T00:40:07.237Z,15.45
2022-12-03T00:40:19.483Z,15.80
2022-12-03T00:40:31.468Z,16.20
2022-12-03T00:40:43.590Z,15.77
2022-12-03T00:40:55.555Z,15.25
2022-12-03T00:41:07.537Z,14.13
2022-12-03T00:41:19.473Z,14.68
2022-12-03T00:41:31.441Z,14.15
2022-12-03T00:41:43.363Z,14.52
2022-12-03T00:41:55.306Z,14.73
2022-12-03T00:42:07.259Z,15.60
2022-12-03T00:42:19.175Z,14.57
2022-12-03T00:42:31.319Z,14.63
2022-12-03T00:42:43.263Z,13.90
2022-12-03T00:42:55.532Z,14.07
2022-12-03T00:43:07.670Z,13.52
2022-12-03T00:43:19.815Z,13.40
2022-12-03T00:43:31.772Z,14.45
2022-12-03T00:43:43.912Z,15.43
2022-12-03T00:43:57.592Z,15.32
2022-12-03T00:44:10.316Z,15.93
2022-12-03T00:44:22.268Z,17.58
2022-12-03T00:44:34.403Z,16.92
2022-12-03T00:44:46.299Z,16.42
2022-12-03T00:44:58.804Z,16.30
2022-12-03T00:45:11.114Z,15.75
2022-12-03T00:45:23.461Z,15.20
2022-12-03T00:45:35.401Z,14.82
2022-12-03T00:45:47.481Z,15.18
2022-12-03T00:45:59.456Z,16.58
2022-12-03T00:46:13.883Z,16.35
2022-12-03T00:46:27.970Z,13.98
2022-12-03T00:46:40.065Z,13.68
2022-12-03T00:46:52.094Z,15.25
2022-12-03T00:47:04.292Z,15.70
2022-12-03T00:47:16.361Z,15.32
2022-12-03T00:47:28.756Z,14.37
2022-12-03T00:47:40.708Z,14.45
2022-12-03T00:47:52.663Z,14.82
2022-12-03T00:48:05.023Z,15.15
2022-12-03T00:48:17.111Z,14.25
2022-12-03T00:48:29.094Z,13.48
2022-12-03T00:48:41.021Z,14.20
2022-12-03T00:48:53.448Z,14.60
2022-12-03T00:49:05.398Z,13.98
2022-12-03T00:49:17.436Z,14.52
2022-12-03T00:49:29.498Z,15.25
2022-12-03T00:49:41.468Z,15.18
2022-12-03T00:49:53.506Z,14.82
2022-12-03T00:50:06.374Z,15.80
2022-12-03T00:50:18.329Z,16.63
2022-12-03T00:50:30.332Z,17.25
2022-12-03T00:50:42.319Z,15.73
2022-12-03T00:50:54.487Z,14.50
2022-12-03T00:51:06.551Z,15.10
2022-12-03T00:51:19.419Z,14.98
2022-12-03T00:51:31.390Z,16.30
2022-12-03T00:51:43.357Z,15.75
2022-12-03T00:51:55.317Z,15.00
2022-12-03T00:52:07.318Z,15.02
2022-12-03T00:52:19.682Z,15.80
2022-12-03T00:52:31.696Z,15.88
2022-12-03T00:52:43.698Z,16.00
2022-12-03T00:52:55.911Z,15.55
2022-12-03T00:53:08.001Z,15.25
2022-12-03T00:53:19.916Z,14.65
2022-12-03T00:53:31.823Z,16.13
2022-12-03T00:53:43.781Z,16.27
2022-12-03T00:53:56.116Z,16.48
2022-12-03T00:54:08.422Z,16.17
2022-12-03T00:54:20.388Z,15.52
2022-12-03T00:54:32.468Z,14.27
2022-12-03T00:54:45.333Z,14.38
2022-12-03T00:54:57.394Z,14.60
2022-12-03T00:55:09.630Z,15.25
2022-12-03T00:55:22.139Z,15.52
2022-12-03T00:55:34.028Z,16.23
2022-12-03T00:55:46.034Z,15.15
2022-12-03T00:55:58.034Z,14.65
2022-12-03T00:56:09.979Z,14.27
2022-12-03T00:56:21.971Z,14.98
2022-12-03T00:56:33.981Z,14.77
2022-12-03T00:56:46.028Z,15.45
2022-12-03T00:56:57.974Z,14.63
2022-12-03T00:57:10.262Z,14.00
2022-12-03T00:57:22.197Z,15.20
2022-12-03T00:57:34.353Z,14.45
2022-12-03T00:57:47.002Z,14.35
2022-12-03T00:57:59.592Z,15.45
2022-12-03T00:58:11.565Z,15.35
2022-12-03T00:58:23.775Z,15.35
2022-12-03T00:58:36.148Z,15.88
2022-12-03T00:58:48.486Z,16.60
2022-12-03T00:59:00.447Z,17.08
2022-12-03T00:59:12.982Z,14.32
2022-12-03T00:59:25.075Z,14.52
2022-12-03T00:59:37.483Z,15.10
2022-12-03T00:59:49.558Z,14.45
2022-12-03T01:00:01.611Z,16.70
2022-12-03T01:00:14.500Z,16.25
2022-12-03T01:00:26.450Z,15.48
2022-12-03T01:00:38.378Z,14.98
2022-12-03T01:00:50.517Z,15.85
2022-12-03T01:01:02.835Z,15.82
2022-12-03T01:01:14.830Z,15.48
2022-12-03T01:01:26.822Z,14.63
2022-12-03T01:01:38.846Z,14.27
2022-12-03T01:01:51.030Z,14.48
2022-12-03T01:02:03.064Z,14.55
2022-12-03T01:02:15.223Z,15.38
2022-12-03T01:02:27.334Z,15.30
2022-12-03T01:02:39.374Z,15.98
2022-12-03T01:02:52.510Z,16.23
2022-12-03T01:03:04.543Z,16.27
2022-12-03T01:03:16.549Z,17.20
2022-12-03T01:03:28.683Z,17.55
2022-12-03T01:03:40.815Z,16.27
2022-12-03T01:03:52.703Z,15.70
2022-12-03T01:04:05.243Z,14.50
2022-12-03T01:04:17.326Z,15.10
2022-12-03T01:04:29.852Z,15.20
2022-12-03T01:04:41.880Z,15.65
2022-12-03T01:04:54.310Z,15.27
2022-12-03T01:05:06.797Z,15.20
2022-12-03T01:05:20.248Z,16.20
2022-12-03T01:05:32.231Z,16.90
2022-12-03T01:05:44.189Z,17.08
2022-12-03T01:05:56.171Z,16.25
2022-12-03T01:06:08.249Z,14.90
2022-12-03T01:06:20.162Z,14.02
2022-12-03T01:06:32.451Z,14.32
2022-12-03T01:06:44.395Z,15.65
2022-12-03T01:06:56.521Z,16.25
2022-12-03T01:07:08.593Z,15.60
2022-12-03T01:07:21.191Z,15.70
2022-12-03T01:07:33.225Z,15.50
2022-12-03T01:07:46.417Z,16.65
2022-12-03T01:07:58.786Z,15.75
2022-12-03T01:08:11.431Z,16.52
2022-12-03T01:08:24.151Z,16.52
2022-12-03T01:08:36.199Z,15.77
2022-12-03T01:08:48.421Z,14.73
2022-12-03T01:09:00.379Z,13.98
2022-12-03T01:09:12.469Z,14.32
2022-12-03T01:09:24.393Z,15.45
2022-12-03T01:09:36.638Z,16.25
2022-12-03T01:09:48.606Z,16.17
2022-12-03T01:10:01.318Z,15.60
2022-12-03T01:10:13.798Z,15.15
2022-12-03T01:10:26.107Z,15.55
2022-12-03T01:10:38.070Z,16.67
2022-12-03T01:10:50.034Z,17.08
2022-12-03T01:11:02.010Z,16.88
2022-12-03T01:11:32.767Z,17.60
2022-12-03T01:11:45.088Z,15.70
2022-12-03T01:11:57.381Z,15.90
2022-12-03T01:12:09.392Z,15.15
2022-12-03T01:12:21.729Z,15.85
2022-12-03T01:12:33.683Z,16.40
2022-12-03T01:12:45.616Z,16.65
2022-12-03T01:12:57.726Z,15.45
2022-12-03T01:13:09.984Z,15.95
2022-12-03T01:13:22.075Z,16.65
2022-12-03T01:13:33.959Z,16.70
2022-12-03T01:13:45.890Z,16.88
2022-12-03T01:13:58.230Z,16.20
2022-12-03T01:14:20.228Z,15.10
2022-12-03T01:14:32.294Z,16.40
2022-12-03T01:14:45.051Z,18.05
2022-12-03T01:14:57.021Z,16.52
2022-12-03T01:15:10.215Z,15.02
2022-12-03T01:15:22.121Z,14.93
2022-12-03T01:15:34.464Z,16.45
2022-12-03T01:15:46.600Z,16.30
2022-12-03T01:15:58.912Z,16.88
2022-12-03T01:16:10.921Z,15.23
2022-12-03T01:16:23.022Z,15.18
2022-12-03T01:16:35.883Z,15.63
2022-12-03T01:16:48.513Z,15.52
2022-12-03T01:17:00.546Z,15.60
2022-12-03T01:17:12.937Z,15.70
2022-12-03T01:17:24.938Z,16.92
2022-12-03T01:17:37.696Z,16.75
2022-12-03T01:17:49.706Z,16.95
2022-12-03T01:18:01.770Z,16.33
2022-12-03T01:18:13.725Z,16.20
2022-12-03T01:18:26.132Z,16.60
2022-12-03T01:18:38.198Z,16.67
2022-12-03T01:18:52.428Z,15.70
2022-12-03T01:19:05.854Z,16.08
2022-12-03T01:19:19.084Z,16.45
2022-12-03T01:19:31.082Z,15.23
2022-12-03T01:19:48.092Z,14.25
2022-12-03T01:20:01.786Z,15.55
2022-12-03T01:20:13.780Z,16.15
2022-12-03T01:20:26.045Z,14.93
2022-12-03T01:20:38.595Z,14.70
2022-12-03T01:20:50.827Z,15.38
2022-12-03T01:21:02.833Z,15.52
2022-12-03T01:21:14.748Z,15.18
2022-12-03T01:21:26.702Z,15.13
2022-12-03T01:21:38.578Z,15.02
2022-12-03T01:21:51.584Z,15.25
2022-12-03T01:22:03.635Z,15.40
2022-12-03T01:22:15.610Z,16.25
2022-12-03T01:22:28.224Z,17.33
2022-12-03T01:22:40.474Z,16.25
2022-12-03T01:22:52.504Z,16.77
2022-12-03T01:23:04.839Z,16.45
2022-12-03T01:23:16.775Z,17.48
2022-12-03T01:23:28.864Z,16.77
2022-12-03T01:23:40.766Z,15.57
2022-12-03T01:23:53.154Z,16.38
2022-12-03T01:24:05.470Z,16.50
2022-12-03T01:24:19.019Z,17.27
2022-12-03T01:24:31.400Z,17.90
2022-12-03T01:24:43.443Z,17.08
2022-12-03T01:24:55.615Z,15.55
2022-12-03T01:25:08.235Z,15.65
2022-12-03T01:25:20.185Z,15.77
2022-12-03T01:25:32.194Z,16.20
2022-12-03T01:25:44.319Z,16.90
2022-12-03T01:25:56.197Z,16.83
2022-12-03T01:26:08.627Z,16.98
2022-12-03T01:26:20.688Z,17.30
2022-12-03T01:26:32.857Z,17.17
2022-12-03T01:26:44.841Z,17.30
2022-12-03T01:26:57.857Z,16.92
2022-12-03T01:27:09.822Z,15.90
2022-12-03T01:27:21.857Z,14.75
2022-12-03T01:27:33.806Z,15.88
2022-12-03T01:27:46.165Z,17.25
2022-12-03T01:27:58.165Z,16.45
2022-12-03T01:28:10.412Z,15.15
2022-12-03T01:28:22.347Z,16.23
2022-12-03T01:28:34.479Z,17.80
2022-12-03T01:28:46.478Z,18.80
2022-12-03T01:28:58.416Z,17.95
2022-12-03T01:29:10.587Z,17.23
2022-12-03T01:29:22.527Z,16.08
2022-12-03T01:29:34.532Z,15.43
2022-12-03T01:29:46.485Z,15.50
2022-12-03T01:29:58.688Z,17.23
2022-12-03T01:30:12.347Z,17.88
2022-12-03T01:30:24.333Z,16.67
2022-12-03T01:30:56.277Z,14.98
2022-12-03T01:31:27.735Z,16.70
2022-12-03T01:31:58.086Z,16.13
2022-12-03T01:32:16.698Z,16.05
2022-12-03T01:32:28.650Z,16.88
2022-12-03T01:32:40.727Z,17.30
2022-12-03T01:32:52.733Z,17.33
2022-12-03T01:33:04.642Z,16.85
2022-12-03T01:33:16.559Z,17.40
2022-12-03T01:33:28.650Z,17.30
2022-12-03T01:33:40.565Z,16.60
2022-12-03T01:33:52.668Z,16.15
2022-12-03T01:34:05.181Z,17.10
2022-12-03T01:34:17.487Z,16.17
2022-12-03T01:34:29.465Z,15.90
2022-12-03T01:34:41.515Z,16.15
2022-12-03T01:34:55.524Z,17.20
2022-12-03T01:35:08.201Z,17.48
2022-12-03T01:35:20.208Z,17.35
2022-12-03T01:35:32.102Z,17.45
2022-12-03T01:35:43.973Z,16.45
2022-12-03T01:35:55.908Z,17.58
2022-12-03T01:36:08.215Z,16.77
2022-12-03T01:36:20.219Z,15.52
2022-12-03T01:36:34.254Z,15.63
2022-12-03T01:36:46.241Z,16.63
2022-12-03T01:36:58.184Z,16.50
2022-12-03T01:37:10.511Z,15.77
2022-12-03T01:37:25.390Z,16.63
2022-12-03T01:37:37.349Z,16.98
2022-12-03T01:37:49.496Z,17.52
2022-12-03T01:38:01.390Z,18.27
2022-12-03T01:38:13.370Z,17.63
2022-12-03T01:38:25.365Z,17.27
2022-12-03T01:38:37.298Z,16.70
2022-12-03T01:38:49.414Z,16.50
2022-12-03T01:39:02.316Z,16.02
2022-12-03T01:39:14.310Z,15.65
2022-12-03T01:39:26.279Z,15.73
2022-12-03T01:39:38.235Z,15.30
2022-12-03T01:39:50.235Z,16.52
2022-12-03T01:40:02.203Z,16.67
2022-12-03T01:40:19.571Z,16.10
2022-12-03T01:40:31.719Z,15.43
2022-12-03T01:40:43.705Z,15.27
2022-12-03T01:40:55.923Z,15.45
2022-12-03T01:41:11.719Z,16.75
2022-12-03T01:41:24.973Z,18.40
2022-12-03T01:41:37.165Z,17.73
2022-12-03T01:41:51.605Z,16.52
2022-12-03T01:42:04.720Z,16.55
2022-12-03T01:42:23.022Z,17.25
2022-12-03T01:42:39.323Z,16.25
2022-12-03T01:42:51.285Z,15.07
2022-12-03T01:43:03.310Z,15.25
2022-12-03T01:43:15.265Z,15.23
2022-12-03T01:43:27.178Z,15.45
2022-12-03T01:43:39.136Z,17.23
2022-12-03T01:43:51.780Z,18.33
2022-12-03T01:44:12.845Z,17.73
2022-12-03T01:44:30.026Z,16.60
2022-12-03T01:44:42.299Z,16.27
2022-12-03T01:44:56.953Z,15.73
2022-12-03T01:45:21.186Z,17.00
2022-12-03T01:45:33.498Z,17.58
2022-12-03T01:45:45.677Z,18.23
2022-12-03T01:45:57.652Z,18.17
2022-12-03T01:46:13.665Z,18.15
2022-12-03T01:46:34.946Z,17.27
2022-12-03T01:46:47.901Z,15.45
2022-12-03T01:47:03.633Z,15.10
2022-12-03T01:47:19.467Z,15.40
2022-12-03T01:47:34.269Z,15.75
2022-12-03T01:47:46.184Z,16.95
2022-12-03T01:47:58.157Z,17.52
2022-12-03T01:48:16.535Z,17.33
2022-12-03T01:48:34.124Z,17.13
2022-12-03T01:48:47.991Z,16.15
2022-12-03T01:49:00.185Z,15.93
2022-12-03T01:49:17.225Z,16.58
2022-12-03T01:49:36.401Z,17.90
2022-12-03T01:49:53.075Z,18.75
2022-12-03T01:50:17.815Z,17.77
2022-12-03T01:50:33.918Z,16.67
2022-12-03T01:50:46.278Z,16.25
2022-12-03T01:50:58.311Z,17.13
2022-12-03T01:51:10.501Z,16.70
2022-12-03T01:51:22.721Z,17.25
2022-12-03T01:51:34.702Z,18.08
2022-12-03T01:51:48.412Z,17.90
2022-12-03T01:52:00.617Z,17.30
2022-12-03T01:52:15.295Z,16.40
2022-12-03T01:52:31.323Z,16.50
2022-12-03T01:52:44.432Z,17.48
2022-12-03T01:53:00.496Z,17.00
2022-12-03T01:53:16.097Z,16.55
2022-12-03T01:53:28.070Z,18.25
2022-12-03T01:53:40.510Z,18.20
2022-12-03T01:53:52.442Z,17.40
2022-12-03T01:54:04.714Z,17.02
2022-12-03T01:54:27.029Z,16.20
2022-12-03T01:54:42.201Z,17.40
2022-12-03T01:54:57.954Z,17.58
2022-12-03T01:55:16.535Z,17.50
2022-12-03T01:55:29.190Z,16.77
2022-12-03T01:55:48.327Z,16.95
2022-12-03T01:56:00.871Z,15.70
2022-12-03T01:56:15.446Z,14.85
2022-12-03T01:56:28.029Z,15.88
2022-12-03T01:56:40.429Z,17.30
2022-12-03T01:56:54.274Z,18.58
2022-12-03T01:57:17.907Z,20.52
2022-12-03T01:57:42.078Z,19.00
2022-12-03T01:57:57.177Z,17.58
2022-12-03T01:58:13.843Z,16.42
2022-12-03T01:58:28.631Z,16.20
2022-12-03T01:58:41.887Z,16.70
2022-12-03T01:58:53.832Z,16.23
2022-12-03T01:59:05.798Z,15.85
2022-12-03T01:59:19.772Z,16.00
2022-12-03T01:59:38.532Z,17.77
2022-12-03T01:59:52.217Z,18.67
2022-12-03T02:00:04.621Z,17.92
2022-12-03T02:00:19.982Z,18.55
2022-12-03T02:00:32.058Z,18.65
2022-12-03T02:00:44.060Z,18.20
2022-12-03T02:00:58.990Z,18.92
2022-12-03T02:01:16.621Z,17.65
2022-12-03T02:01:28.693Z,15.68
2022-12-03T02:01:40.956Z,17.17
2022-12-03T02:01:52.937Z,17.40
2022-12-03T02:02:14.227Z,17.65
2022-12-03T02:02:31.106Z,18.20
2022-12-03T02:02:43.349Z,16.00
2022-12-03T02:03:02.188Z,16.05
2022-12-03T02:03:20.943Z,17.23
2022-12-03T02:03:33.027Z,17.15
2022-12-03T02:03:46.118Z,16.10
2022-12-03T02:03:58.442Z,15.65
2022-12-03T02:04:16.608Z,15.88
2022-12-03T02:04:29.828Z,17.25
2022-12-03T02:04:41.862Z,18.27
2022-12-03T02:04:55.042Z,18.63
2022-12-03T02:05:16.731Z,17.77
2022-12-03T02:05:31.193Z,17.27
2022-12-03T02:05:43.323Z,17.38
2022-12-03T02:05:56.821Z,17.50
2022-12-03T02:06:17.050Z,18.10
2022-12-03T02:06:30.038Z,18.55
2022-12-03T02:06:44.716Z,18.38
2022-12-03T02:06:57.426Z,18.83
2022-12-03T02:07:18.316Z,18.13
2022-12-03T02:07:32.770Z,18.05
2022-12-03T02:07:45.252Z,18.33
2022-12-03T02:07:58.270Z,18.52
2022-12-03T02:08:29.681Z,18.42
2022-12-03T02:08:41.752Z,17.83
2022-12-03T02:08:59.495Z,17.30
2022-12-03T02:09:12.982Z,20.45
2022-12-03T02:09:24.905Z,19.80
2022-12-03T02:09:36.842Z,18.70
2022-12-03T02:09:49.071Z,18.25
2022-12-03T02:10:03.261Z,18.80
2022-12-03T02:10:17.364Z,19.50
2022-12-03T02:10:35.748Z,18.58
2022-12-03T02:10:47.808Z,16.67
2022-12-03T02:11:05.246Z,16.98
2022-12-03T02:11:29.878Z,19.05
2022-12-03T02:11:49.314Z,18.08
2022-12-03T02:12:01.203Z,17.92
2022-12-03T02:12:16.046Z,19.25
2022-12-03T02:12:33.656Z,18.80
2022-12-03T02:12:54.568Z,17.52
2022-12-03T02:13:09.355Z,17.77
2022-12-03T02:13:21.710Z,17.48
2022-12-03T02:13:33.759Z,19.05
2022-12-03T02:13:47.796Z,20.75
2022-12-03T02:14:04.211Z,19.77
2022-12-03T02:14:20.129Z,18.75
2022-12-03T02:14:32.509Z,19.27
2022-12-03T02:14:44.557Z,17.27
2022-12-03T02:14:57.467Z,18.13
2022-12-03T02:15:10.960Z,18.40
2022-12-03T02:15:23.546Z,19.02
2022-12-03T02:15:38.444Z,19.33
2022-12-03T02:15:50.472Z,18.45
2022-12-03T02:16:03.817Z,18.08
2022-12-03T02:16:16.020Z,19.45
2022-12-03T02:16:29.129Z,19.92
2022-12-03T02:16:42.207Z,19.40
2022-12-03T02:16:54.299Z,19.27
2022-12-03T02:17:06.600Z,19.52
2022-12-03T02:17:18.742Z,20.85
2022-12-03T02:17:31.003Z,21.20
2022-12-03T02:17:43.258Z,19.58
2022-12-03T02:17:55.557Z,18.27
2022-12-03T02:18:08.975Z,16.63
2022-12-03T02:18:21.247Z,16.08
2022-12-03T02:18:33.863Z,16.42
2022-12-03T02:18:45.979Z,17.40
2022-12-03T02:18:58.610Z,17.85
2022-12-03T02:19:20.920Z,17.88
2022-12-03T02:19:33.233Z,18.52
2022-12-03T02:19:46.001Z,17.85
2022-12-03T02:19:59.111Z,17.95
2022-12-03T02:20:12.044Z,18.85
2022-12-03T02:20:24.213Z,19.08
2022-12-03T02:20:46.863Z,20.05
2022-12-03T02:21:33.928Z,19.38
2022-12-03T02:22:17.955Z,17.75
2022-12-03T02:22:34.886Z,18.95
2022-12-03T02:23:13.862Z,18.95
2022-12-03T02:23:40.755Z,18.23
2022-12-03T02:24:21.998Z,17.30
2022-12-03T02:24:53.102Z,18.30
2022-12-03T02:25:32.550Z,18.20
2022-12-03T02:25:44.489Z,17.77
2022-12-03T02:25:56.517Z,17.98
2022-12-03T02:26:08.821Z,18.50
2022-12-03T02:26:21.189Z,18.58
2022-12-03T02:26:33.362Z,18.13
2022-12-03T02:26:45.558Z,18.05
2022-12-03T02:26:57.496Z,18.10
2022-12-03T02:27:09.473Z,19.35
2022-12-03T02:27:22.166Z,18.10
2022-12-03T02:27:34.161Z,18.10
2022-12-03T02:27:47.833Z,18.55
2022-12-03T02:28:00.614Z,18.55
2022-12-03T02:28:12.856Z,18.00
2022-12-03T02:28:24.957Z,19.50
2022-12-03T02:28:38.196Z,19.88
2022-12-03T02:28:50.267Z,20.00
2022-12-03T02:29:02.607Z,19.87
2022-12-03T02:29:14.587Z,18.73
2022-12-03T02:29:26.683Z,17.23
2022-12-03T02:29:38.775Z,18.00
2022-12-03T02:29:51.316Z,17.90
2022-12-03T02:30:05.531Z,20.38
2022-12-03T02:30:21.754Z,20.08
2022-12-03T02:30:33.976Z,18.55
2022-12-03T02:30:45.915Z,19.40
2022-12-03T02:30:58.173Z,19.23
2022-12-03T02:31:10.398Z,18.40
2022-12-03T02:31:23.691Z,18.00
2022-12-03T02:31:36.025Z,16.80
2022-12-03T02:31:48.426Z,18.50
2022-12-03T02:32:00.649Z,19.75
2022-12-03T02:32:12.683Z,20.38
2022-12-03T02:32:24.656Z,20.42
2022-12-03T02:32:37.476Z,18.77
2022-12-03T02:32:52.166Z,16.85
2022-12-03T02:33:04.243Z,17.73
2022-12-03T02:33:16.729Z,17.67
2022-12-03T02:33:28.648Z,17.00
2022-12-03T02:33:40.826Z,17.48
2022-12-03T02:33:52.826Z,18.20
2022-12-03T02:34:08.871Z,20.00
2022-12-03T02:34:53.228Z,19.95
2022-12-03T02:35:06.293Z,20.77
2022-12-03T02:35:23.806Z,20.33
2022-12-03T02:35:37.170Z,19.50
2022-12-03T02:35:49.457Z,19.08
2022-12-03T02:36:03.941Z,19.85
2022-12-03T02:36:16.888Z,20.77
2022-12-03T02:36:28.891Z,19.75
2022-12-03T02:36:40.909Z,20.52
2022-12-03T02:36:53.022Z,20.33
2022-12-03T02:37:07.570Z,20.23
2022-12-03T02:37:24.519Z,20.05
2022-12-03T02:37:37.418Z,19.75
2022-12-03T02:37:52.810Z,20.55
2022-12-03T02:38:24.808Z,20.20
2022-12-03T02:38:37.125Z,19.17
2022-12-03T02:38:49.962Z,19.88
2022-12-03T02:39:02.707Z,20.90
2022-12-03T02:39:14.634Z,21.08
2022-12-03T02:39:26.905Z,20.92
2022-12-03T02:39:42.912Z,20.50
2022-12-03T02:39:58.615Z,19.45
2022-12-03T02:40:15.000Z,19.65
2022-12-03T02:40:30.928Z,21.05
2022-12-03T02:40:45.817Z,21.10
2022-12-03T02:41:02.557Z,18.90
2022-12-03T02:41:37.305Z,18.38
2022-12-03T02:42:08.232Z,19.92
2022-12-03T02:42:36.223Z,20.15
2022-12-03T02:42:51.196Z,18.08
2022-12-03T02:43:04.463Z,19.17
2022-12-03T02:43:18.344Z,17.48
2022-12-03T02:43:30.788Z,16.38
2022-12-03T02:43:43.115Z,18.60
2022-12-03T02:43:54.997Z,21.15
2022-12-03T02:44:08.610Z,21.42
2022-12-03T02:44:20.600Z,20.58
2022-12-03T02:44:32.573Z,19.77
2022-12-03T02:44:44.580Z,18.67
2022-12-03T02:45:04.891Z,19.50
2022-12-03T02:45:17.526Z,19.80
2022-12-03T02:45:36.200Z,20.00
2022-12-03T02:45:53.363Z,20.02
2022-12-03T02:46:08.064Z,21.80
2022-12-03T02:46:20.033Z,23.38
2022-12-03T02:46:33.338Z,21.23
2022-12-03T02:46:45.374Z,21.05
2022-12-03T02:46:57.525Z,20.77
2022-12-03T02:47:09.814Z,21.05
2022-12-03T02:47:22.629Z,20.45
2022-12-03T02:47:40.523Z,20.45
2022-12-03T02:48:02.550Z,18.67
2022-12-03T02:48:19.473Z,18.65
2022-12-03T02:48:35.638Z,18.15
2022-12-03T02:48:47.619Z,20.75
2022-12-03T02:49:01.083Z,21.27
2022-12-03T02:49:13.143Z,20.33
2022-12-03T02:49:25.349Z,20.33
2022-12-03T02:49:37.367Z,21.52
2022-12-03T02:49:50.716Z,21.67
2022-12-03T02:50:03.133Z,20.80
2022-12-03T02:50:19.645Z,19.75
2022-12-03T02:50:34.483Z,21.55
2022-12-03T02:50:51.948Z,21.27
2022-12-03T02:51:10.174Z,20.33
2022-12-03T02:51:22.315Z,20.42
2022-12-03T02:51:34.842Z,20.02
2022-12-03T02:51:46.753Z,20.00
2022-12-03T02:51:58.722Z,19.52
2022-12-03T02:52:10.823Z,20.33
2022-12-03T02:52:23.360Z,21.55
2022-12-03T02:52:35.828Z,21.95
2022-12-03T02:52:48.632Z,20.88
2022-12-03T02:53:04.529Z,21.75
2022-12-03T02:53:25.514Z,20.05
2022-12-03T02:53:44.601Z,17.85